Time;durP1;ratioP1;P1;durP2;ratioP2;P2;SDS_P1;SDS_P2;PMS_P1;PMS_P2;Temp;Humidity;BMP_temperature;BMP_pressure;BME280_temperature;BME280_humidity;BME280_pressure;Samples;Min_cycle;Max_cycle;Signal;HPM_P1;HPM_P2
2022/01/13 00:01:49;;;;;;;19.10;11.73;;;;;;;3.93;54.28;95960.88;5095046;28;20551;-74
2022/01/13 00:04:17;;;;;;;17.67;11.90;;;;;;;4.01;54.01;95974.03;5094887;28;20239;-74
2022/01/13 00:06:44;;;;;;;17.83;12.23;;;;;;;3.84;54.06;95951.97;5093588;28;20690;-76
2022/01/13 00:09:13;;;;;;;16.00;11.70;;;;;;;3.97;53.96;95972.50;5092891;28;20579;-74
2022/01/13 00:11:41;;;;;;;16.47;11.80;;;;;;;3.97;54.04;95975.88;5093866;28;20200;-74
2022/01/13 00:20:11;;;;;;;19.30;11.50;;;;;;;3.92;54.05;95995.47;5030410;28;20305;-75
2022/01/13 00:25:24;;;;;;;17.03;12.63;;;;;;;3.89;54.21;96002.41;5029318;28;20238;-75
2022/01/13 00:27:57;;;;;;;17.90;13.13;;;;;;;3.89;54.27;96012.53;5030316;28;20230;-75
2022/01/13 00:30:26;;;;;;;17.70;12.80;;;;;;;3.88;54.00;96009.16;5031188;28;20235;-76
2022/01/13 00:32:53;;;;;;;19.63;13.30;;;;;;;3.86;54.01;96005.88;5030033;28;20617;-77
2022/01/13 00:35:20;;;;;;;22.23;13.30;;;;;;;3.88;53.96;96013.38;5029497;28;20243;-77
2022/01/13 00:37:47;;;;;;;20.27;13.90;;;;;;;3.87;54.03;96019.34;5030004;28;20195;-78
2022/01/13 00:40:15;;;;;;;18.17;13.40;;;;;;;3.77;54.03;96011.31;5013497;28;20214;-76
2022/01/13 00:42:44;;;;;;;19.00;12.53;;;;;;;3.62;53.90;95995.06;5029877;28;20192;-77
2022/01/13 00:45:14;;;;;;;18.97;13.03;;;;;;;3.81;53.86;96029.72;5029912;28;20637;-77
2022/01/13 00:47:42;;;;;;;21.00;13.13;;;;;;;3.78;53.77;96025.59;5029574;28;20191;-76
2022/01/13 00:50:09;;;;;;;21.30;14.87;;;;;;;3.78;53.82;96030.66;5043119;28;20676;-77
2022/01/13 00:52:36;;;;;;;21.70;14.27;;;;;;;3.77;53.77;96026.50;5092589;28;20190;-77
2022/01/13 00:55:08;;;;;;;18.43;13.27;;;;;;;3.75;53.67;96030.78;5092268;28;20197;-75
2022/01/13 00:57:35;;;;;;;22.23;14.30;;;;;;;3.74;53.79;96027.44;5092618;28;20250;-76
2022/01/13 01:00:05;;;;;;;21.73;13.20;;;;;;;3.71;53.90;96035.19;5092000;28;20186;-76
2022/01/13 01:02:32;;;;;;;19.33;13.97;;;;;;;3.72;53.89;96041.06;5092199;28;20194;-76
2022/01/13 01:05:00;;;;;;;21.90;13.60;;;;;;;3.72;53.90;96041.06;5091625;28;20234;-75
2022/01/13 01:07:27;;;;;;;22.23;13.60;;;;;;;3.67;53.67;96037.88;5091986;28;20197;-77
2022/01/13 01:09:58;;;;;;;18.53;12.40;;;;;;;3.64;53.77;96038.84;5073954;28;20190;-76
2022/01/13 01:12:25;;;;;;;21.33;13.83;;;;;;;3.63;53.69;96038.91;5091992;28;20277;-76
2022/01/13 01:14:57;;;;;;;21.00;14.87;;;;;;;3.47;53.65;96015.94;5091988;28;20201;-76
2022/01/13 01:17:26;;;;;;;22.93;13.87;;;;;;;3.65;53.84;96047.25;5091886;28;20234;-76
2022/01/13 01:19:54;;;;;;;22.17;14.30;;;;;;;3.64;53.69;96046.41;5091732;28;20224;-76
2022/01/13 01:22:41;;;;;;;20.17;14.00;;;;;;;3.62;53.75;96053.22;5074112;28;20197;-75
2022/01/13 01:28:01;;;;;;;20.40;13.87;;;;;;;3.59;53.74;96050.84;5089096;28;20201;-74
2022/01/13 01:30:33;;;;;;;23.10;15.13;;;;;;;3.59;53.57;96047.50;5091556;28;20566;-74
2022/01/13 01:33:03;;;;;;;23.43;13.87;;;;;;;3.56;53.61;96045.91;5091214;28;20730;-74
2022/01/13 01:35:30;;;;;;;23.43;15.97;;;;;;;3.55;53.52;96049.31;5090951;28;20351;-74
2022/01/13 01:37:58;;;;;;;22.20;14.47;;;;;;;3.52;53.72;96050.25;5090996;28;20194;-76
2022/01/13 01:40:25;;;;;;;21.17;13.23;;;;;;;3.43;53.54;96030.41;5073244;28;20194;-75
2022/01/13 01:42:52;;;;;;;24.70;14.40;;;;;;;3.42;53.60;96038.88;5091315;28;20590;-74
2022/01/13 01:45:21;;;;;;;25.83;14.00;;;;;;;3.49;53.72;96059.66;5091736;28;20221;-75
2022/01/13 01:47:51;;;;;;;23.93;14.67;;;;;;;3.47;53.67;96054.69;5074134;28;20262;-74
2022/01/13 01:50:23;;;;;;;21.47;13.97;;;;;;;3.43;53.56;96044.75;5091041;28;20700;-76
2022/01/13 01:52:53;;;;;;;23.30;13.17;;;;;;;3.46;53.46;96057.28;5091501;28;20196;-74
2022/01/13 01:55:22;;;;;;;22.53;14.17;;;;;;;3.45;53.55;96050.56;5091250;28;20198;-73
2022/01/13 01:57:51;;;;;;;20.23;14.40;;;;;;;3.42;53.51;96046.47;5091184;28;20719;-75
2022/01/13 02:00:21;;;;;;;20.97;14.67;;;;;;;3.40;53.56;96040.63;5090666;28;20196;-76
2022/01/13 02:02:49;;;;;;;22.30;14.13;;;;;;;3.39;53.54;96041.53;5091003;28;20196;-74
2022/01/13 02:05:19;;;;;;;20.00;13.33;;;;;;;3.39;53.61;96039.00;5090422;28;20256;-74
2022/01/13 02:07:48;;;;;;;20.73;14.17;;;;;;;3.38;53.66;96037.34;5073380;28;20906;-74
2022/01/13 02:10:17;;;;;;;22.20;13.40;;;;;;;3.37;53.54;96033.19;5090695;28;20579;-75
2022/01/13 02:12:50;;;;;;;21.20;13.10;;;;;;;3.36;53.51;96026.47;5091247;28;20264;-78
2022/01/13 02:18:00;;;;;;;21.00;13.20;;;;;;;3.31;53.29;96030.06;5088298;28;20200;-76
2022/01/13 02:20:51;;;;;;;19.83;13.20;;;;;;;3.31;53.40;96041.00;5090287;28;20659;-74
2022/01/13 02:23:33;;;;;;;24.43;15.10;;;;;;;3.26;53.57;96031.06;5090361;28;20672;-76
2022/01/13 02:26:01;;;;;;;22.50;14.20;;;;;;;3.28;53.36;96046.16;5091394;28;20221;-77
2022/01/13 02:28:30;;;;;;;21.33;13.70;;;;;;;3.27;53.47;96037.75;5072884;28;20189;-78
2022/01/13 02:30:58;;;;;;;20.53;13.03;;;;;;;3.14;53.55;96016.38;5090717;28;20201;-74
2022/01/13 02:33:25;;;;;;;18.63;13.23;;;;;;;2.96;53.66;95990.13;5092363;28;20193;-75
2022/01/13 02:35:54;;;;;;;24.00;14.37;;;;;;;3.26;53.54;96041.19;5091344;28;20304;-74
2022/01/13 02:38:21;;;;;;;20.17;13.53;;;;;;;3.17;53.44;96026.38;5090146;28;20562;-74
2022/01/13 02:40:53;;;;;;;22.63;13.70;;;;;;;3.23;53.46;96041.28;5090368;28;20299;-75
2022/01/13 02:43:20;;;;;;;22.77;13.87;;;;;;;3.24;53.68;96049.72;5090051;28;20206;-75
2022/01/13 02:46:03;;;;;;;23.13;14.63;;;;;;;3.23;53.56;96055.63;5090468;28;20692;-77
2022/01/13 02:48:30;;;;;;;20.33;14.40;;;;;;;2.69;53.48;95965.94;5090221;28;20201;-74
2022/01/13 02:51:00;;;;;;;22.43;14.80;;;;;;;3.21;53.48;96050.66;5089741;28;20213;-75
2022/01/13 02:53:28;;;;;;;23.10;14.93;;;;;;;3.06;53.35;96028.47;5090034;28;20196;-75
2022/01/13 02:56:01;;;;;;;19.17;13.10;;;;;;;3.10;53.18;96034.25;5090777;28;20239;-75
2022/01/13 02:58:30;;;;;;;18.27;13.20;;;;;;;3.13;53.16;96036.66;5090292;28;20201;-76
2022/01/13 03:00:57;;;;;;;22.13;13.70;;;;;;;3.03;53.35;96018.53;5090554;28;20247;-75
2022/01/13 03:03:25;;;;;;;23.10;14.37;;;;;;;3.16;53.35;96034.84;5089969;28;20197;-75
2022/01/13 03:05:52;;;;;;;19.57;13.30;;;;;;;3.09;53.01;96023.31;5089917;28;20762;-77
2022/01/13 03:08:20;;;;;;;18.17;13.10;;;;;;;3.08;53.07;96028.44;5089716;28;20189;-76
2022/01/13 03:10:46;;;;;;;26.83;14.77;;;;;;;3.13;53.00;96034.97;5090405;28;20196;-78
2022/01/13 03:13:13;;;;;;;21.77;14.40;;;;;;;3.09;53.05;96028.38;5091807;28;20193;-75
2022/01/13 03:15:41;;;;;;;23.67;14.53;;;;;;;3.11;53.07;96030.84;5090157;28;20699;-76
2022/01/13 03:18:07;;;;;;;20.63;13.90;;;;;;;3.07;52.96;96030.16;5072111;28;20194;-77
2022/01/13 03:20:35;;;;;;;24.10;15.23;;;;;;;3.09;52.92;96030.09;5071578;28;20196;-78
2022/01/13 03:23:04;;;;;;;17.47;12.93;;;;;;;3.09;53.00;96028.38;5089858;28;20197;-75
2022/01/13 03:25:33;;;;;;;21.10;13.83;;;;;;;3.09;52.82;96035.97;5089814;28;20261;-76
2022/01/13 03:28:07;;;;;;;20.80;13.40;;;;;;;3.07;52.64;96042.78;5090326;28;20205;-76
2022/01/13 03:30:34;;;;;;;21.33;13.30;;;;;;;3.07;52.75;96041.97;5089831;28;20688;-77
2022/01/13 03:33:02;;;;;;;23.53;13.83;;;;;;;3.05;52.65;96044.53;5090442;28;20198;-74
2022/01/13 03:35:31;;;;;;;18.20;12.60;;;;;;;3.02;52.46;96039.59;5092863;28;20233;-75
2022/01/13 03:37:58;;;;;;;20.50;12.90;;;;;;;2.97;52.52;96042.28;5093932;28;20194;-75
2022/01/13 03:40:27;;;;;;;21.37;13.00;;;;;;;2.99;52.46;96045.59;5075044;28;20250;-75
2022/01/13 03:42:57;;;;;;;19.77;12.53;;;;;;;2.99;52.51;96052.38;5093651;28;20196;-74
2022/01/13 03:45:24;;;;;;;17.87;12.03;;;;;;;2.97;52.35;96049.88;5075360;28;20230;-76
2022/01/13 03:47:51;;;;;;;18.87;12.97;;;;;;;2.98;52.16;96043.16;5097516;28;20205;-76
2022/01/13 03:50:18;;;;;;;19.10;12.17;;;;;;;2.97;52.11;96051.59;5100510;28;20196;-76
2022/01/13 03:53:22;;;;;;;16.07;11.83;;;;;;;2.98;51.95;96055.78;5097110;28;20190;-75
2022/01/13 03:56:29;;;;;;;17.30;11.43;;;;;;;2.97;51.91;96051.59;5094633;28;20206;-76
2022/01/13 03:59:57;;;;;;;16.17;11.07;;;;;;;2.90;51.87;96045.97;5093424;28;20200;-75
2022/01/13 04:02:26;;;;;;;16.47;10.83;;;;;;;2.89;51.80;96043.47;5010909;28;20283;-75
2022/01/13 04:04:54;;;;;;;15.33;11.37;;;;;;;2.90;51.70;96055.25;5010747;28;20753;-75
2022/01/13 04:07:23;;;;;;;20.30;12.77;;;;;;;2.85;51.80;96052.88;5010521;28;20200;-74
2022/01/13 04:10:27;;;;;;;19.63;12.40;;;;;;;2.88;51.71;96065.38;5010914;28;20219;-76
2022/01/13 04:12:59;;;;;;;18.20;12.10;;;;;;;2.87;51.64;96066.28;5011195;28;20279;-75
2022/01/13 04:15:29;;;;;;;17.73;11.67;;;;;;;2.87;51.64;96081.44;5010671;28;20193;-75
2022/01/13 04:17:58;;;;;;;16.63;11.87;;;;;;;2.87;51.76;96076.38;5011017;28;20188;-74
2022/01/13 04:20:26;;;;;;;19.73;13.07;;;;;;;2.87;51.74;96083.97;4993881;28;20278;-77
2022/01/13 04:22:53;;;;;;;17.57;11.60;;;;;;;2.86;51.61;96082.31;5010792;28;20591;-75
2022/01/13 04:25:23;;;;;;;16.27;11.33;;;;;;;2.85;51.50;96085.72;5013026;28;20223;-74
2022/01/13 04:27:51;;;;;;;18.73;12.13;;;;;;;2.86;51.55;96089.06;5018714;28;20211;-77
2022/01/13 04:30:46;;;;;;;16.93;11.37;;;;;;;2.84;51.41;96091.63;5016640;28;20227;-73
2022/01/13 04:33:17;;;;;;;20.03;11.70;;;;;;;2.83;51.47;96101.81;4985263;28;20219;-77
2022/01/13 04:35:45;;;;;;;16.83;11.57;;;;;;;2.71;51.39;96085.41;5025750;28;20221;-77
2022/01/13 04:38:12;;;;;;;16.60;10.90;;;;;;;2.66;51.27;96080.50;5093195;28;20193;-75
2022/01/13 04:40:44;;;;;;;16.63;11.83;;;;;;;2.71;51.47;96087.91;5092753;28;20194;-76
2022/01/13 04:43:13;;;;;;;16.53;11.00;;;;;;;2.69;51.54;96077.06;5093366;28;20202;-76
2022/01/13 04:45:42;;;;;;;18.73;11.33;;;;;;;2.75;51.42;96081.88;5092542;28;20225;-74
2022/01/13 04:48:09;;;;;;;17.53;11.23;;;;;;;2.76;51.64;96086.03;5076289;28;20705;-76
2022/01/13 04:50:37;;;;;;;17.70;11.30;;;;;;;2.75;51.33;96077.66;5094399;28;20247;-76
2022/01/13 04:53:04;;;;;;;16.40;10.83;;;;;;;2.71;51.11;96071.06;5093870;28;20186;-76
2022/01/13 04:55:34;;;;;;;21.77;12.10;;;;;;;2.73;51.27;96079.41;5092513;28;20196;-77
2022/01/13 04:58:01;;;;;;;16.67;10.70;;;;;;;2.73;51.03;96081.94;5075112;28;20280;-77
2022/01/13 05:00:30;;;;;;;17.43;10.97;;;;;;;2.71;51.22;96083.69;5094101;28;20186;-78
2022/01/13 05:02:58;;;;;;;17.37;11.37;;;;;;;2.60;51.34;96064.78;5092581;28;20194;-77
2022/01/13 05:05:26;;;;;;;17.70;11.37;;;;;;;2.68;51.21;96081.28;5091958;28;20224;-78
2022/01/13 05:07:55;;;;;;;17.17;11.87;;;;;;;2.62;51.22;96078.97;5092190;28;20185;-76
2022/01/13 05:10:25;;;;;;;19.00;11.03;;;;;;;2.66;51.21;96084.75;5092950;28;20194;-77
2022/01/13 05:12:56;;;;;;;16.57;10.77;;;;;;;2.66;51.04;96099.91;5075200;28;20189;-77
2022/01/13 05:15:26;;;;;;;15.67;10.33;;;;;;;2.62;50.97;96094.13;5093779;28;20257;-74
2022/01/13 05:20:47;;;;;;;17.67;10.27;;;;;;;2.60;51.05;96095.06;5091535;28;20633;-78
2022/01/13 05:23:17;;;;;;;16.50;10.53;;;;;;;2.59;51.23;96091.72;5092265;28;20228;-77
2022/01/13 05:25:45;;;;;;;13.73;10.73;;;;;;;2.54;51.09;96085.19;5092222;28;20596;-78
2022/01/13 05:28:13;;;;;;;16.43;11.27;;;;;;;2.62;51.22;96104.22;5092062;28;20205;-76
2022/01/13 05:30:40;;;;;;;15.37;10.80;;;;;;;2.62;51.38;96116.84;5092269;28;20190;-76
2022/01/13 05:33:08;;;;;;;17.83;10.40;;;;;;;2.63;51.12;96112.63;5074340;28;20258;-77
2022/01/13 05:35:36;;;;;;;14.17;10.30;;;;;;;2.49;51.03;96096.25;5091609;28;20233;-75
2022/01/13 05:38:04;;;;;;;15.70;11.07;;;;;;;2.61;50.94;96116.91;5092854;28;20834;-77
2022/01/13 05:40:34;;;;;;;14.90;9.90;;;;;;;2.61;50.83;96127.84;5091650;28;20190;-76
2022/01/13 05:43:02;;;;;;;14.10;9.53;;;;;;;2.61;50.63;96122.78;5091927;28;20194;-74
2022/01/13 05:45:32;;;;;;;14.00;10.20;;;;;;;2.60;50.83;96126.19;5092195;28;20236;-75
2022/01/13 05:48:01;;;;;;;16.57;9.93;;;;;;;2.59;50.75;96129.59;5091802;28;20204;-73
2022/01/13 05:50:29;;;;;;;12.43;9.53;;;;;;;2.61;50.53;96137.13;5091855;28;20190;-74
2022/01/13 05:53:00;;;;;;;18.27;11.53;;;;;;;2.62;50.81;96138.75;5091345;28;20190;-76
2022/01/13 05:55:28;;;;;;;14.57;9.80;;;;;;;2.61;50.63;96137.13;5057295;28;20198;-76
2022/01/13 05:57:56;;;;;;;17.20;10.63;;;;;;;2.58;50.70;96124.59;5096059;28;20190;-77
2022/01/13 06:00:24;;;;;;;16.40;10.70;;;;;;;2.57;50.81;96133.06;5092391;28;20656;-76
2022/01/13 06:02:52;;;;;;;18.37;10.93;;;;;;;2.56;50.73;96129.72;5091205;28;20208;-73
2022/01/13 06:05:19;;;;;;;15.90;10.40;;;;;;;2.56;50.94;96139.81;5091777;28;20221;-74
2022/01/13 06:07:46;;;;;;;15.70;9.97;;;;;;;2.55;50.94;96142.38;5091661;28;20197;-76
2022/01/13 06:10:18;;;;;;;18.07;10.83;;;;;;;2.55;50.84;96142.38;5091966;28;20193;-76
2022/01/13 06:12:48;;;;;;;17.87;11.90;;;;;;;2.54;50.92;96144.06;5091447;28;20232;-77
2022/01/13 06:15:19;;;;;;;14.83;10.33;;;;;;;2.54;50.71;96150.81;5073982;28;20197;-76
2022/01/13 06:17:48;;;;;;;19.23;11.97;;;;;;;2.45;50.71;96135.13;5090887;28;20232;-76
2022/01/13 06:20:15;;;;;;;15.93;10.27;;;;;;;2.50;50.69;96143.38;5090967;28;20614;-76
2022/01/13 06:22:44;;;;;;;16.23;10.50;;;;;;;2.56;50.68;96154.13;5090370;28;20681;-75
2022/01/13 06:25:12;;;;;;;15.63;9.93;;;;;;;2.55;50.52;96150.78;5091060;28;20290;-74
2022/01/13 06:27:39;;;;;;;19.60;11.30;;;;;;;2.02;50.36;96072.66;5090281;28;20198;-73
2022/01/13 06:30:09;;;;;;;15.13;10.20;;;;;;;2.52;50.52;96166.03;5090818;28;20196;-74
2022/01/13 06:32:38;;;;;;;16.33;11.17;;;;;;;2.49;50.57;96161.91;5090342;28;20205;-74
2022/01/13 06:35:06;;;;;;;18.33;10.63;;;;;;;2.52;50.43;96168.56;5090877;28;20813;-73
2022/01/13 06:37:33;;;;;;;16.40;10.30;;;;;;;2.55;50.28;96168.47;5090816;28;20223;-74
2022/01/13 06:40:01;;;;;;;17.23;10.83;;;;;;;2.38;50.27;96146.31;5091137;28;20200;-75
2022/01/13 06:42:28;;;;;;;15.50;10.13;;;;;;;2.56;50.26;96181.91;5092519;28;20656;-75
2022/01/13 06:44:55;;;;;;;16.77;11.63;;;;;;;2.57;50.13;96181.84;5095898;28;20196;-75
2022/01/13 06:47:22;;;;;;;16.30;9.83;;;;;;;2.60;50.11;96180.94;5091632;28;20194;-76
2022/01/13 06:49:51;;;;;;;14.53;9.67;;;;;;;2.61;50.18;96183.41;5090510;28;20197;-76
2022/01/13 06:52:17;;;;;;;14.23;9.60;;;;;;;2.64;49.94;96183.31;5090742;28;20190;-76
2022/01/13 06:54:44;;;;;;;15.77;10.77;;;;;;;2.66;49.86;96186.59;5091363;28;20321;-76
2022/01/13 06:57:11;;;;;;;16.30;10.93;;;;;;;2.67;49.74;96187.41;5092827;28;20190;-75
2022/01/13 06:59:40;;;;;;;18.67;10.50;;;;;;;2.59;49.70;96174.22;5089251;28;20189;-76
2022/01/13 07:02:07;;;;;;;14.40;9.80;;;;;;;2.66;49.40;96188.28;5092787;28;20841;-77
2022/01/13 07:04:34;;;;;;;14.67;9.53;;;;;;;2.24;49.34;96131.63;5092569;28;20193;-76
2022/01/13 07:07:03;;;;;;;14.73;9.60;;;;;;;2.69;49.25;96193.25;5091899;28;20229;-75
2022/01/13 07:09:30;;;;;;;17.17;10.00;;;;;;;2.76;48.80;96213.19;5095232;28;20672;-74
2022/01/13 07:11:57;;;;;;;13.33;9.20;;;;;;;2.57;49.01;96181.84;5094994;28;20178;-75
2022/01/13 07:14:23;;;;;;;18.60;8.93;;;;;;;2.80;48.51;96223.16;5093485;28;20205;-77
2022/01/13 07:16:50;;;;;;;11.80;8.50;;;;;;;2.82;48.74;96212.16;5094796;28;20649;-74
2022/01/13 07:19:17;;;;;;;15.63;9.30;;;;;;;2.84;48.60;96217.13;5097406;28;20189;-75
2022/01/13 07:21:45;;;;;;;13.03;8.83;;;;;;;2.87;48.58;96215.34;5094539;28;20202;-75
2022/01/13 07:24:14;;;;;;;16.03;9.37;;;;;;;2.87;48.53;96209.47;5094911;28;20190;-76
2022/01/13 07:26:41;;;;;;;12.37;8.90;;;;;;;2.75;48.36;96191.31;5094514;28;20213;-73
2022/01/13 07:29:08;;;;;;;13.67;9.33;;;;;;;2.99;48.29;96225.00;5094112;28;20614;-75
2022/01/13 07:31:35;;;;;;;13.33;9.20;;;;;;;3.02;48.41;96213.97;5094349;28;20630;-75
2022/01/13 07:34:03;;;;;;;13.67;9.00;;;;;;;3.13;47.97;96227.06;5095160;28;20256;-73
2022/01/13 07:36:30;;;;;;;14.30;8.90;;;;;;;3.22;47.89;96225.91;5097530;28;20193;-75
2022/01/13 07:38:57;;;;;;;14.73;9.23;;;;;;;3.30;47.99;96225.63;5105978;28;20273;-73
2022/01/13 07:41:25;;;;;;;14.37;9.30;;;;;;;3.38;47.66;96223.63;5113487;28;20195;-75
2022/01/13 07:43:55;;;;;;;15.90;9.90;;;;;;;3.47;47.66;96226.66;5114074;28;20181;-74
2022/01/13 07:46:22;;;;;;;12.93;8.57;;;;;;;3.69;49.67;96234.25;5083883;28;20218;-74
2022/01/13 07:48:49;;;;;;;14.90;8.77;;;;;;;3.73;49.09;96228.19;5070880;28;20193;-76
2022/01/13 07:51:16;;;;;;;12.33;8.43;;;;;;;3.95;48.99;96252.69;5072572;28;20197;-76
2022/01/13 07:53:43;;;;;;;13.30;9.17;;;;;;;4.01;48.94;96260.03;5070056;28;20198;-75
2022/01/13 07:56:10;;;;;;;13.20;9.83;;;;;;;4.06;48.55;96268.28;5070293;28;20668;-76
2022/01/13 07:58:40;;;;;;;11.97;8.57;;;;;;;4.00;48.30;96260.91;5070711;28;20190;-78
2022/01/13 08:01:07;;;;;;;16.47;11.13;;;;;;;4.10;47.84;96271.50;5073283;28;20640;-78
2022/01/13 08:03:34;;;;;;;13.00;9.83;;;;;;;3.97;47.55;96250.91;5073398;28;20186;-75
2022/01/13 08:06:01;;;;;;;12.67;9.70;;;;;;;4.18;47.36;96274.56;5071323;28;20217;-76
2022/01/13 08:08:28;;;;;;;16.33;10.40;;;;;;;4.21;46.95;96280.34;5070604;28;20187;-75
2022/01/13 08:10:55;;;;;;;16.03;9.67;;;;;;;4.24;46.72;96287.81;5072090;28;20201;-74
2022/01/13 08:13:22;;;;;;;13.83;9.07;;;;;;;4.27;46.35;96284.34;5070710;28;20612;-77
2022/01/13 08:15:54;;;;;;;13.27;9.37;;;;;;;4.31;46.37;96290.09;5071272;28;20191;-76
2022/01/13 08:21:05;;;;;;;12.03;8.50;;;;;;;4.30;45.66;96285.94;5055345;28;20180;-77
2022/01/13 08:23:32;;;;;;;12.63;9.13;;;;;;;4.40;45.70;96304.94;5077000;28;20197;-75
2022/01/13 08:25:59;;;;;;;13.03;9.17;;;;;;;4.43;45.56;96297.22;5078036;28;20222;-75
2022/01/13 08:28:28;;;;;;;12.07;8.43;;;;;;;4.47;45.35;96301.28;5073643;28;20193;-78
2022/01/13 08:30:56;;;;;;;10.23;5.67;;;;;;;4.74;83.04;96306.94;5074606;28;20221;-75
2022/01/13 08:33:23;;;;;;;10.87;7.60;;;;;;;5.45;82.79;96317.50;5070822;28;20194;-78
2022/01/13 08:35:50;;;;;;;12.93;8.37;;;;;;;5.76;73.93;96312.72;5070030;28;20581;-75
2022/01/13 08:38:19;;;;;;;13.57;8.43;;;;;;;5.81;66.93;96299.00;5086991;28;20205;-76
2022/01/13 08:40:46;;;;;;;12.37;8.40;;;;;;;5.86;61.82;96305.50;5095713;28;20228;-77
2022/01/13 08:43:13;;;;;;;12.90;8.10;;;;;;;5.85;58.35;96303.88;5092741;28;20609;-78
2022/01/13 08:45:41;;;;;;;12.63;8.43;;;;;;;5.84;55.50;96303.97;5093110;28;20649;-77
2022/01/13 08:48:09;;;;;;;10.47;7.37;;;;;;;5.82;53.51;96309.06;5092847;28;20204;-75
2022/01/13 08:50:36;;;;;;;12.40;8.30;;;;;;;5.70;51.84;96296.94;5092942;28;20188;-78
2022/01/13 08:53:03;;;;;;;14.93;7.40;;;;;;;5.79;50.29;96309.25;5093569;28;20189;-76
2022/01/13 08:55:30;;;;;;;12.67;7.77;;;;;;;5.65;49.26;96296.31;5092833;28;20205;-78
2022/01/13 08:57:57;;;;;;;13.80;8.83;;;;;;;5.62;48.16;96294.75;5091828;28;20649;-76
2022/01/13 09:00:24;;;;;;;12.63;8.20;;;;;;;5.74;47.44;96311.13;5092400;28;20194;-77
2022/01/13 09:02:51;;;;;;;14.23;8.70;;;;;;;5.71;46.84;96306.22;5090967;28;20213;-77
2022/01/13 09:05:22;;;;;;;12.43;8.27;;;;;;;5.68;46.04;96306.34;5097742;28;20201;-76
2022/01/13 09:07:50;;;;;;;12.07;8.33;;;;;;;5.50;45.46;96275.00;5098152;28;20220;-78
2022/01/13 09:10:18;;;;;;;12.27;8.57;;;;;;;5.66;44.96;96298.00;5075714;28;20645;-75
2022/01/13 09:12:46;;;;;;;12.53;8.43;;;;;;;5.67;44.60;96300.44;5092961;28;20209;-75
2022/01/13 09:15:18;;;;;;;13.00;8.10;;;;;;;5.69;44.44;96298.66;5092933;28;20247;-76
2022/01/13 09:17:51;;;;;;;14.47;7.87;;;;;;;5.73;44.06;96302.69;5092947;28;20276;-75
2022/01/13 09:20:23;;;;;;;12.53;8.67;;;;;;;5.79;43.88;96299.09;5091660;28;20719;-76
2022/01/13 09:22:50;;;;;;;12.30;8.50;;;;;;;5.78;43.56;96275.38;5093061;28;20252;-77
2022/01/13 09:25:17;;;;;;;12.93;9.47;;;;;;;5.88;43.44;96280.91;5092509;28;20200;-76
2022/01/13 09:27:43;;;;;;;11.83;8.47;;;;;;;5.92;43.34;96281.63;5090109;28;20209;-75
2022/01/13 09:30:14;;;;;;;12.27;8.23;;;;;;;5.90;43.03;96258.78;5093044;28;20186;-77
2022/01/13 09:32:41;;;;;;;16.13;8.83;;;;;;;5.47;42.97;96183.78;5091340;28;20190;-77
2022/01/13 09:35:10;;;;;;;19.40;9.00;;;;;;;5.96;42.76;96258.53;5091393;28;20301;-76
2022/01/13 09:37:40;;;;;;;12.20;8.47;;;;;;;6.02;42.79;96252.34;5074130;28;20200;-75
2022/01/13 09:40:09;;;;;;;9.80;7.63;;;;;;;6.11;42.58;96259.53;5073339;28;20575;-77
2022/01/13 09:42:40;;;;;;;13.57;9.13;;;;;;;6.10;42.60;96257.91;5056462;28;20189;-77
2022/01/13 09:45:09;;;;;;;12.60;9.00;;;;;;;6.02;42.40;96248.09;5075719;28;20254;-76
2022/01/13 09:47:38;;;;;;;11.73;8.83;;;;;;;5.90;42.39;96222.41;5097239;28;20240;-76
2022/01/13 09:50:10;;;;;;;12.90;8.70;;;;;;;6.10;42.12;96247.75;5096630;28;20182;-76
2022/01/13 09:52:40;;;;;;;15.23;9.73;;;;;;;6.11;42.11;96246.03;5090827;28;20213;-77
2022/01/13 09:55:10;;;;;;;12.00;8.80;;;;;;;6.14;42.05;96239.09;5091550;28;20189;-75
2022/01/13 09:57:41;;;;;;;14.17;9.23;;;;;;;6.18;42.12;96238.03;5072960;28;20197;-74
2022/01/13 10:00:10;;;;;;;12.87;9.17;;;;;;;6.14;41.95;96220.47;5076782;28;20180;-78
2022/01/13 10:02:37;;;;;;;13.77;9.37;;;;;;;6.06;42.08;96203.06;5101172;28;20200;-75
2022/01/13 10:05:08;;;;;;;16.23;9.23;;;;;;;6.02;42.00;96204.91;5101147;28;20181;-74
2022/01/13 10:07:37;;;;;;;16.03;10.77;;;;;;;5.98;41.88;96198.34;5099370;28;20213;-76
2022/01/13 10:10:09;;;;;;;14.27;9.70;;;;;;;5.99;41.85;96194.91;5100116;28;20196;-76
2022/01/13 10:12:38;;;;;;;14.07;9.17;;;;;;;6.05;41.59;96198.06;5099892;28;20231;-77
2022/01/13 10:17:57;;;;;;;14.53;9.17;;;;;;;6.29;41.56;96191.78;5096967;28;20240;-76
2022/01/13 10:20:26;;;;;;;14.83;10.13;;;;;;;6.39;41.24;96182.00;5081257;28;20196;-75
2022/01/13 10:22:53;;;;;;;14.30;9.70;;;;;;;6.47;41.25;96175.63;5098664;28;20217;-75
2022/01/13 10:25:32;;;;;;;13.40;9.17;;;;;;;6.46;41.25;96171.47;5082810;28;20200;-75
2022/01/13 10:28:17;;;;;;;15.30;9.97;;;;;;;6.45;40.90;96154.56;5097751;28;20220;-75
2022/01/13 10:30:47;;;;;;;14.77;10.03;;;;;;;6.56;41.29;96155.75;5102145;28;20193;-75
2022/01/13 10:33:17;;;;;;;13.63;9.57;;;;;;;6.81;40.96;96157.88;5097241;28;20195;-75
2022/01/13 10:35:45;;;;;;;14.70;9.03;;;;;;;6.88;40.79;96144.78;5099614;28;20225;-75
2022/01/13 10:38:17;;;;;;;12.07;8.93;;;;;;;6.82;40.71;96131.53;5096992;28;20189;-75
2022/01/13 10:40:47;;;;;;;15.30;8.97;;;;;;;6.82;40.83;96139.97;5098537;28;20189;-76
2022/01/13 10:43:16;;;;;;;14.07;9.67;;;;;;;6.90;40.63;96157.41;5076958;28;20263;-76
2022/01/13 10:45:49;;;;;;;13.57;9.20;;;;;;;6.82;40.68;96124.72;5099433;28;20188;-78
2022/01/13 10:48:21;;;;;;;14.27;9.67;;;;;;;6.96;40.58;96129.94;5099837;28;20637;-77
2022/01/13 10:50:54;;;;;;;15.83;9.47;;;;;;;6.96;40.50;96129.94;5080803;28;20189;-74
2022/01/13 10:53:23;;;;;;;13.97;9.90;;;;;;;6.79;40.54;96107.09;5099706;28;20655;-76
2022/01/13 10:55:54;;;;;;;15.10;8.97;;;;;;;6.85;40.43;96116.94;5098591;28;20190;-75
2022/01/13 10:58:25;;;;;;;13.83;9.83;;;;;;;6.87;40.31;96115.16;5099761;28;20189;-74
2022/01/13 11:00:53;;;;;;;12.33;9.17;;;;;;;6.88;40.30;96124.44;5095407;28;20174;-76
2022/01/13 11:03:21;;;;;;;12.47;9.43;;;;;;;6.90;40.24;96137.06;5101060;28;20189;-78
2022/01/13 11:05:52;;;;;;;13.20;9.30;;;;;;;6.89;40.04;96131.16;5098812;28;20173;-76
2022/01/13 11:08:25;;;;;;;14.80;9.00;;;;;;;6.92;39.83;96141.16;5100363;28;20216;-77
2022/01/13 11:10:56;;;;;;;12.73;9.43;;;;;;;6.82;39.86;96109.47;5102359;28;20606;-75
2022/01/13 11:13:24;;;;;;;14.07;9.30;;;;;;;6.83;39.94;96100.97;5111685;28;20181;-77
2022/01/13 11:15:55;;;;;;;15.43;9.47;;;;;;;7.02;39.85;96133.88;5110352;28;20196;-76
2022/01/13 11:18:28;;;;;;;11.80;8.60;;;;;;;7.03;39.83;96130.41;5110175;28;20604;-75
2022/01/13 11:20:56;;;;;;;13.20;8.53;;;;;;;7.01;39.64;96124.59;5109904;28;20200;-76
2022/01/13 11:23:23;;;;;;;17.20;9.00;;;;;;;6.98;39.58;96119.69;5110777;28;20196;-75
2022/01/13 11:25:56;;;;;;;13.67;9.40;;;;;;;6.83;39.64;96098.44;5109286;28;20193;-76
2022/01/13 11:28:24;;;;;;;16.90;9.57;;;;;;;6.84;39.53;96094.97;5091443;28;20220;-76
2022/01/13 11:30:51;;;;;;;12.70;9.43;;;;;;;6.89;39.47;96112.53;5109660;28;20188;-76
2022/01/13 11:33:19;;;;;;;16.20;9.87;;;;;;;6.85;39.52;96111.03;5110640;28;20181;-75
2022/01/13 11:35:55;;;;;;;16.30;9.87;;;;;;;6.71;39.40;96079.53;5109439;28;20252;-76
2022/01/13 11:38:23;;;;;;;15.43;9.50;;;;;;;6.77;39.61;96098.72;5109765;28;20616;-76
2022/01/13 11:40:54;;;;;;;14.37;8.80;;;;;;;6.73;39.52;96099.78;5108542;28;20540;-75
2022/01/13 11:43:33;;;;;;;11.10;9.07;;;;;;;6.67;39.69;96105.19;5109763;28;20197;-75
2022/01/13 11:46:16;;;;;;;15.20;9.77;;;;;;;6.64;39.54;96108.72;5109240;28;20698;-75
2022/01/13 11:48:59;;;;;;;14.80;10.37;;;;;;;6.53;39.53;96101.66;5088499;28;20237;-76
2022/01/13 11:51:29;;;;;;;15.53;9.40;;;;;;;6.56;39.74;96104.91;5109231;28;20249;-76
2022/01/13 11:54:02;;;;;;;14.30;9.97;;;;;;;6.45;39.79;96090.22;5109679;28;20193;-75
2022/01/13 11:56:31;;;;;;;15.03;10.37;;;;;;;6.51;39.85;96112.78;5112924;28;20191;-75
2022/01/13 11:58:59;;;;;;;17.67;10.20;;;;;;;6.43;39.92;96109.78;5094712;28;20193;-77
2022/01/13 12:01:30;;;;;;;15.20;9.73;;;;;;;6.35;40.01;96111.91;5113654;28;20193;-76
2022/01/13 12:03:58;;;;;;;16.07;10.10;;;;;;;6.40;40.13;96132.84;5112606;28;20185;-75